createdAt,value
2023-05-09T00:01:30.986Z,57.04
2023-05-09T00:04:02.898Z,58.74
2023-05-09T00:06:33.247Z,58.64
2023-05-09T00:09:02.676Z,59.02
2023-05-09T00:14:08.830Z,59.68
2023-05-09T00:16:38.522Z,59.58
2023-05-09T00:19:09.961Z,60.47
2023-05-09T00:21:45.103Z,60.43
2023-05-09T00:24:20.486Z,61.37
2023-05-09T00:26:49.890Z,61.48
2023-05-09T00:29:19.272Z,61.81
2023-05-09T00:31:53.962Z,62.11
2023-05-09T00:34:25.169Z,63.59
2023-05-09T00:36:54.381Z,63.01
2023-05-09T00:39:33.860Z,65.27
2023-05-09T00:42:03.246Z,64.07
2023-05-09T00:44:32.531Z,64.37
2023-05-09T00:47:02.127Z,64.22
2023-05-09T00:49:33.333Z,65.45
2023-05-09T00:52:09.464Z,64.41
2023-05-09T00:54:38.718Z,65.06
2023-05-09T00:57:08.102Z,65.03
2023-05-09T00:59:37.769Z,64.82
2023-05-09T01:02:07.174Z,64.63
2023-05-09T01:04:38.641Z,65.03
2023-05-09T01:07:15.852Z,66.11
2023-05-09T01:09:52.759Z,66.32
2023-05-09T01:12:33.446Z,67.54
2023-05-09T01:15:14.620Z,66.64
2023-05-09T01:18:00.201Z,67.58
2023-05-09T01:20:40.175Z,67.68
2023-05-09T01:23:36.997Z,69.09
2023-05-09T01:26:08.186Z,67.38
2023-05-09T01:29:01.268Z,68.66
2023-05-09T01:31:40.463Z,68.37
2023-05-09T01:34:16.978Z,69.95
2023-05-09T01:36:48.859Z,68.41
2023-05-09T01:39:21.966Z,69.02
2023-05-09T01:41:52.517Z,69.18
2023-05-09T01:44:24.352Z,69.10
2023-05-09T01:46:56.594Z,70.17
2023-05-09T01:49:27.311Z,67.45
2023-05-09T01:52:03.217Z,67.72
2023-05-09T01:54:34.286Z,67.83
2023-05-09T01:57:06.246Z,67.81
2023-05-09T01:59:36.661Z,67.46
2023-05-09T02:02:09.700Z,67.18
2023-05-09T02:04:40.732Z,66.09
2023-05-09T02:07:11.467Z,64.89
2023-05-09T02:09:41.006Z,64.02
2023-05-09T02:12:10.632Z,63.53
2023-05-09T02:17:18.959Z,61.80
2023-05-09T02:19:48.495Z,61.05
2023-05-09T02:22:37.852Z,60.88
2023-05-09T02:25:15.011Z,61.35
2023-05-09T02:27:46.227Z,61.31
2023-05-09T02:30:20.758Z,60.97
2023-05-09T02:32:53.843Z,60.51
2023-05-09T02:35:24.697Z,60.13
2023-05-09T02:37:55.194Z,59.19
2023-05-09T02:40:25.191Z,58.72
2023-05-09T02:42:54.477Z,58.18
2023-05-09T02:45:25.027Z,58.11
2023-05-09T02:47:56.374Z,57.90
2023-05-09T02:50:25.843Z,57.82
2023-05-09T02:52:55.137Z,57.52
2023-05-09T02:55:29.856Z,55.66
2023-05-09T02:58:11.999Z,55.64
2023-05-09T03:00:44.608Z,54.72
2023-05-09T03:03:18.807Z,53.75
2023-05-09T03:05:48.789Z,53.70
2023-05-09T03:08:18.270Z,53.17
2023-05-09T03:10:48.381Z,52.68
2023-05-09T03:13:18.560Z,52.58
2023-05-09T03:15:53.091Z,52.46
2023-05-09T03:18:24.725Z,52.62
2023-05-09T03:20:54.618Z,52.34
2023-05-09T03:23:24.155Z,53.04
2023-05-09T03:25:58.748Z,52.65
2023-05-09T03:28:29.898Z,52.81
2023-05-09T03:31:07.919Z,52.43
2023-05-09T03:33:39.204Z,51.49
2023-05-09T03:36:14.655Z,51.88
2023-05-09T03:38:46.685Z,51.30
2023-05-09T03:41:18.348Z,50.57
2023-05-09T03:43:49.767Z,50.26
2023-05-09T03:46:24.230Z,49.45
2023-05-09T03:48:55.881Z,48.62
2023-05-09T03:51:32.007Z,48.39
2023-05-09T03:54:02.807Z,48.60
2023-05-09T03:56:32.297Z,48.10
2023-05-09T03:59:01.787Z,48.62
2023-05-09T04:01:32.047Z,48.78
2023-05-09T04:04:05.502Z,47.53
2023-05-09T04:06:38.445Z,47.47
2023-05-09T04:09:10.922Z,46.21
2023-05-09T04:11:43.553Z,45.33
2023-05-09T04:14:19.887Z,43.73
2023-05-09T04:16:49.405Z,42.65
2023-05-09T04:19:21.039Z,42.51
2023-05-09T04:21:50.876Z,42.36
2023-05-09T04:24:20.660Z,42.07
2023-05-09T04:26:51.103Z,41.55
2023-05-09T04:29:24.163Z,41.14
2023-05-09T04:31:59.637Z,40.90
2023-05-09T04:34:31.919Z,39.40
2023-05-09T04:37:06.286Z,39.03
2023-05-09T04:39:35.773Z,38.57
2023-05-09T04:42:29.205Z,38.32
2023-05-09T04:44:58.605Z,38.56
2023-05-09T04:47:41.365Z,38.54
2023-05-09T04:50:18.489Z,38.30
2023-05-09T04:52:48.369Z,39.24
2023-05-09T04:55:18.238Z,38.79
2023-05-09T04:57:50.945Z,39.08
2023-05-09T05:00:21.100Z,39.38
2023-05-09T05:03:11.716Z,38.99
2023-05-09T05:05:43.513Z,37.97
2023-05-09T05:08:13.939Z,38.33
2023-05-09T05:10:44.619Z,37.21
2023-05-09T05:13:21.203Z,37.39
2023-05-09T05:15:54.518Z,37.11
2023-05-09T05:18:24.346Z,37.57
2023-05-09T05:20:55.754Z,36.94
2023-05-09T05:23:30.873Z,37.60
2023-05-09T05:26:00.333Z,37.76
2023-05-09T05:28:30.632Z,37.18
2023-05-09T05:31:05.226Z,36.80
2023-05-09T05:33:35.225Z,36.49
2023-05-09T05:36:07.791Z,35.50
2023-05-09T05:38:37.211Z,35.98
2023-05-09T05:41:11.905Z,36.10
2023-05-09T05:43:43.523Z,36.49
2023-05-09T05:46:18.871Z,36.28
2023-05-09T05:48:48.257Z,36.20
2023-05-09T05:51:19.521Z,36.14
2023-05-09T05:53:49.196Z,35.95
2023-05-09T05:56:18.546Z,35.81
2023-05-09T05:58:48.239Z,35.74
2023-05-09T06:01:23.320Z,35.56
2023-05-09T06:03:54.571Z,35.90
2023-05-09T06:06:29.011Z,36.12
2023-05-09T06:08:58.698Z,35.42
2023-05-09T06:11:27.900Z,35.33
2023-05-09T06:13:57.265Z,34.83
2023-05-09T06:16:28.265Z,33.72
2023-05-09T06:18:57.768Z,33.73
2023-05-09T06:21:29.041Z,33.15
2023-05-09T06:24:11.804Z,33.07
2023-05-09T06:26:43.917Z,32.81
2023-05-09T06:29:14.825Z,32.95
2023-05-09T06:31:44.227Z,32.83
2023-05-09T06:34:13.607Z,32.82
2023-05-09T06:36:45.160Z,32.48
2023-05-09T06:39:14.565Z,32.40
2023-05-09T06:41:43.781Z,32.88
2023-05-09T06:44:31.787Z,33.10
2023-05-09T06:47:01.431Z,32.65
2023-05-09T06:49:30.656Z,32.53
2023-05-09T06:52:02.781Z,31.86
2023-05-09T06:54:32.586Z,32.39
2023-05-09T06:57:02.614Z,31.95
2023-05-09T06:59:32.663Z,31.43
2023-05-09T07:02:02.185Z,31.43
2023-05-09T07:04:38.496Z,31.12
2023-05-09T07:07:09.852Z,30.24
2023-05-09T07:09:39.437Z,30.59
2023-05-09T07:12:08.982Z,30.30
2023-05-09T07:14:38.257Z,29.96
2023-05-09T07:17:21.982Z,30.48
2023-05-09T07:19:53.013Z,30.30
2023-05-09T07:22:24.505Z,29.97
2023-05-09T07:24:54.002Z,29.72
2023-05-09T07:27:23.175Z,29.73
2023-05-09T07:29:53.255Z,29.57
2023-05-09T07:32:23.648Z,30.10
2023-05-09T07:34:53.132Z,30.15
2023-05-09T07:37:24.468Z,30.10
2023-05-09T07:39:53.827Z,30.05
2023-05-09T07:42:23.009Z,29.98
2023-05-09T07:44:52.571Z,30.05
2023-05-09T07:47:21.845Z,29.29
2023-05-09T07:49:56.368Z,28.70
2023-05-09T07:52:27.700Z,27.93
2023-05-09T07:54:57.263Z,26.95
2023-05-09T07:57:26.608Z,26.74
2023-05-09T07:59:56.196Z,26.03
2023-05-09T08:02:26.053Z,25.47
2023-05-09T08:04:55.578Z,25.62
2023-05-09T08:07:32.117Z,25.20
2023-05-09T08:10:01.693Z,25.60
2023-05-09T08:12:32.230Z,25.50
2023-05-09T08:15:01.582Z,25.32
2023-05-09T08:17:36.819Z,25.94
2023-05-09T08:20:26.038Z,25.84
2023-05-09T08:22:57.605Z,25.41
2023-05-09T08:25:27.039Z,25.53
2023-05-09T08:27:56.724Z,25.66
2023-05-09T08:30:26.764Z,25.11
2023-05-09T08:32:56.060Z,25.35
2023-05-09T08:35:25.395Z,25.55
2023-05-09T08:37:56.786Z,25.12
2023-05-09T08:40:26.290Z,25.14
2023-05-09T08:43:15.510Z,25.00
2023-05-09T08:45:49.107Z,24.86
2023-05-09T08:48:18.825Z,25.00
2023-05-09T08:50:48.122Z,24.95
2023-05-09T08:53:21.255Z,24.33
2023-05-09T09:01:08.685Z,25.64
2023-05-09T09:03:40.114Z,26.00
2023-05-09T09:06:11.461Z,26.56
2023-05-09T09:08:43.680Z,26.62
2023-05-09T09:11:14.225Z,26.92
2023-05-09T09:13:45.814Z,26.93
2023-05-09T09:16:27.146Z,26.81
2023-05-09T09:18:58.933Z,26.96
2023-05-09T09:21:35.294Z,27.03
2023-05-09T09:24:09.832Z,26.80
2023-05-09T09:26:48.414Z,26.63
2023-05-09T09:29:27.525Z,25.70
2023-05-09T09:32:01.943Z,25.56
2023-05-09T09:34:46.335Z,25.20
2023-05-09T09:37:24.098Z,24.92
2023-05-09T09:39:58.845Z,24.19
2023-05-09T09:42:28.390Z,23.62
2023-05-09T09:44:59.372Z,22.79
2023-05-09T09:47:35.426Z,22.45
2023-05-09T09:50:13.917Z,22.69
2023-05-09T09:52:55.550Z,22.37
2023-05-09T09:55:27.388Z,22.67
2023-05-09T09:57:56.828Z,23.30
2023-05-09T10:00:29.658Z,22.70
2023-05-09T10:03:00.634Z,22.81
2023-05-09T10:05:31.440Z,22.29
2023-05-09T10:08:02.224Z,22.84
2023-05-09T10:10:35.258Z,22.79
2023-05-09T10:13:06.104Z,22.85
2023-05-09T10:15:52.212Z,22.77
2023-05-09T10:18:35.799Z,22.82
2023-05-09T10:21:06.603Z,22.79
2023-05-09T10:23:39.634Z,22.48
2023-05-09T10:26:20.710Z,22.87
2023-05-09T10:28:51.831Z,23.17
2023-05-09T10:31:27.194Z,23.33
2023-05-09T10:33:57.622Z,23.63
2023-05-09T10:36:28.170Z,23.35
2023-05-09T10:38:57.945Z,23.11
2023-05-09T10:41:29.376Z,23.30
2023-05-09T10:44:00.167Z,23.04
2023-05-09T10:46:30.184Z,22.78
2023-05-09T10:48:59.966Z,22.45
2023-05-09T10:51:31.112Z,22.51
2023-05-09T10:54:00.549Z,22.29
2023-05-09T10:56:35.521Z,21.95
2023-05-09T10:59:05.387Z,22.12
2023-05-09T11:01:37.412Z,21.97
2023-05-09T11:04:12.698Z,21.50
2023-05-09T11:06:48.951Z,22.30
2023-05-09T11:09:42.018Z,22.48
2023-05-09T11:12:17.244Z,22.89
2023-05-09T11:14:54.328Z,22.61
2023-05-09T11:17:32.435Z,23.02
2023-05-09T11:20:05.110Z,23.29
2023-05-09T11:22:49.582Z,23.02
2023-05-09T11:25:21.507Z,23.07
2023-05-09T11:27:52.667Z,23.63
2023-05-09T11:30:22.940Z,24.17
2023-05-09T11:32:59.756Z,24.92
2023-05-09T11:35:29.984Z,24.68
2023-05-09T11:38:03.671Z,25.12
2023-05-09T11:40:34.249Z,25.10
2023-05-09T11:43:05.672Z,25.08
2023-05-09T11:45:43.939Z,25.20
2023-05-09T11:48:13.392Z,25.09
2023-05-09T11:50:43.035Z,24.20
2023-05-09T11:53:13.028Z,23.91
2023-05-09T11:55:43.445Z,23.88
2023-05-09T11:58:15.776Z,23.32
2023-05-09T12:00:47.036Z,22.83
2023-05-09T12:03:16.899Z,22.63
2023-05-09T12:05:46.946Z,22.09
2023-05-09T12:08:21.489Z,22.33
2023-05-09T12:10:51.152Z,22.29
2023-05-09T12:16:08.862Z,21.53
2023-05-09T12:18:38.269Z,22.28
2023-05-09T12:21:07.806Z,22.10
2023-05-09T12:23:37.286Z,22.19
2023-05-09T12:26:12.277Z,22.47
2023-05-09T12:28:44.609Z,22.09
2023-05-09T12:31:14.384Z,22.59
2023-05-09T12:33:44.033Z,23.09
2023-05-09T12:36:15.787Z,23.46
2023-05-09T12:38:55.450Z,24.00
2023-05-09T12:51:39.672Z,25.40
2023-05-09T12:54:15.737Z,25.68
2023-05-09T12:56:47.186Z,26.66
2023-05-09T12:59:21.971Z,26.10
2023-05-09T13:01:56.395Z,25.81
2023-05-09T13:04:31.138Z,25.83
2023-05-09T13:07:02.475Z,25.72
2023-05-09T13:09:33.702Z,25.34
2023-05-09T13:12:09.743Z,25.55
2023-05-09T13:14:39.217Z,25.42
2023-05-09T13:17:08.684Z,25.09
2023-05-09T13:19:44.144Z,24.82
2023-05-09T13:22:17.078Z,24.51
2023-05-09T13:24:46.550Z,24.63
2023-05-09T13:27:15.931Z,24.19
2023-05-09T13:29:45.516Z,23.83
2023-05-09T13:32:14.866Z,23.70
2023-05-09T13:34:44.402Z,23.42
2023-05-09T13:37:15.767Z,22.88
2023-05-09T13:39:45.231Z,22.73
2023-05-09T13:42:14.560Z,23.50
2023-05-09T13:44:43.896Z,23.28
2023-05-09T13:47:13.252Z,23.43
2023-05-09T13:49:42.592Z,24.05
2023-05-09T13:52:11.910Z,24.62
2023-05-09T13:54:43.358Z,24.76
2023-05-09T13:57:13.434Z,24.98
2023-05-09T13:59:42.999Z,24.71
2023-05-09T14:02:18.527Z,25.31
2023-05-09T14:04:52.922Z,25.69
2023-05-09T14:07:22.408Z,25.26
2023-05-09T14:09:58.749Z,25.76
2023-05-09T14:12:39.201Z,25.78
2023-05-09T14:15:10.657Z,25.77
2023-05-09T14:17:45.479Z,25.98
2023-05-09T14:20:15.898Z,26.03
2023-05-09T14:22:50.530Z,26.28
2023-05-09T14:25:22.363Z,26.30
2023-05-09T14:27:52.040Z,26.15
2023-05-09T14:30:21.624Z,26.71
2023-05-09T14:32:50.976Z,26.43
2023-05-09T14:35:20.779Z,26.09
2023-05-09T14:37:50.333Z,26.10
2023-05-09T14:40:23.003Z,26.07
2023-05-09T14:42:52.461Z,25.63
2023-05-09T14:45:21.780Z,25.97
2023-05-09T14:47:51.319Z,26.16
2023-05-09T14:50:21.922Z,25.73
2023-05-09T14:52:52.004Z,25.98
2023-05-09T14:55:23.637Z,25.45
2023-05-09T14:57:53.268Z,25.38
2023-05-09T15:00:24.028Z,25.62
2023-05-09T15:02:53.983Z,25.99
2023-05-09T15:05:23.606Z,25.50
2023-05-09T15:07:53.035Z,25.06
2023-05-09T15:10:29.415Z,24.75
2023-05-09T15:12:58.880Z,24.35
2023-05-09T15:15:28.772Z,24.83
2023-05-09T15:17:58.383Z,25.10
2023-05-09T15:20:27.775Z,25.55
2023-05-09T15:22:57.140Z,25.24
2023-05-09T15:25:28.515Z,25.81
2023-05-09T15:27:59.035Z,26.14
2023-05-09T15:30:29.130Z,26.38
2023-05-09T15:32:58.882Z,26.41
2023-05-09T15:35:28.696Z,26.77
2023-05-09T15:37:58.059Z,26.88
2023-05-09T15:40:29.861Z,26.80
2023-05-09T15:42:59.585Z,27.04
2023-05-09T15:45:44.846Z,27.43
2023-05-09T15:48:19.485Z,26.98
2023-05-09T15:50:49.243Z,26.98
2023-05-09T15:53:18.607Z,27.50
2023-05-09T15:55:55.139Z,26.08
2023-05-09T15:58:29.613Z,25.66
2023-05-09T16:00:59.191Z,25.19
2023-05-09T16:03:29.104Z,25.57
2023-05-09T16:06:02.648Z,26.52
2023-05-09T16:08:37.689Z,27.58
2023-05-09T16:13:46.220Z,27.58
2023-05-09T16:16:15.840Z,27.93
2023-05-09T16:18:45.180Z,28.00
2023-05-09T16:21:21.300Z,28.59
2023-05-09T16:23:50.753Z,28.66
2023-05-09T16:26:22.175Z,28.27
2023-05-09T16:28:56.769Z,27.39
2023-05-09T16:31:27.620Z,26.79
2023-05-09T16:33:57.941Z,25.99
2023-05-09T16:36:27.307Z,25.68
2023-05-09T16:38:56.882Z,26.64
2023-05-09T16:41:28.747Z,28.21
2023-05-09T16:43:58.408Z,27.90
2023-05-09T16:46:27.737Z,28.77
2023-05-09T16:49:03.329Z,28.86
2023-05-09T16:51:33.222Z,29.94
2023-05-09T16:54:02.721Z,30.39
2023-05-09T16:56:34.272Z,30.92
2023-05-09T16:59:03.783Z,31.13
2023-05-09T17:01:33.466Z,32.08
2023-05-09T17:04:06.194Z,32.21
2023-05-09T17:06:37.543Z,32.87
2023-05-09T17:09:18.418Z,32.76
2023-05-09T17:11:54.763Z,34.01
2023-05-09T17:14:29.628Z,33.90
2023-05-09T17:17:00.105Z,34.66
2023-05-09T17:19:29.755Z,34.78
2023-05-09T17:22:03.867Z,35.04
2023-05-09T17:24:33.351Z,35.43
2023-05-09T17:27:11.010Z,35.72
2023-05-09T17:29:45.585Z,35.43
2023-05-09T17:32:15.874Z,35.73
2023-05-09T17:34:45.197Z,35.61
2023-05-09T17:37:14.469Z,35.68
2023-05-09T17:39:44.050Z,35.44
2023-05-09T17:42:20.760Z,36.37
2023-05-09T17:44:56.147Z,36.93
2023-05-09T17:47:30.723Z,36.49
2023-05-09T17:50:00.561Z,36.33
2023-05-09T17:52:29.857Z,36.16
2023-05-09T17:54:59.273Z,35.88
2023-05-09T17:57:30.753Z,36.97
2023-05-09T18:00:00.361Z,36.24
2023-05-09T18:02:29.826Z,36.11
2023-05-09T18:04:59.626Z,36.41
2023-05-09T18:07:29.008Z,36.50
2023-05-09T18:09:58.282Z,37.11
2023-05-09T18:12:30.870Z,36.82
2023-05-09T18:15:00.838Z,36.51
2023-05-09T18:17:30.155Z,36.79
2023-05-09T18:19:59.468Z,36.46
2023-05-09T18:22:28.796Z,36.60
2023-05-09T18:24:58.197Z,36.69
2023-05-09T18:27:29.428Z,36.84
2023-05-09T18:29:59.035Z,36.81
2023-05-09T18:32:29.510Z,36.75
2023-05-09T18:34:58.913Z,37.50
2023-05-09T18:37:28.299Z,37.42
2023-05-09T18:39:57.732Z,37.52
2023-05-09T18:42:27.745Z,37.13
2023-05-09T18:45:00.546Z,38.08
2023-05-09T18:47:29.926Z,37.19
2023-05-09T18:50:01.721Z,36.73
2023-05-09T18:52:34.392Z,36.38
2023-05-09T18:55:05.852Z,36.23
2023-05-09T18:57:35.450Z,36.17
2023-05-09T19:00:07.864Z,35.84
2023-05-09T19:02:38.080Z,35.86
2023-05-09T19:05:09.093Z,35.64
2023-05-09T19:07:39.357Z,36.01
2023-05-09T19:12:45.813Z,35.65
2023-05-09T19:15:17.142Z,35.68
2023-05-09T19:17:46.702Z,35.50
2023-05-09T19:20:21.300Z,35.44
2023-05-09T19:22:52.368Z,35.48
2023-05-09T19:25:22.411Z,35.49
2023-05-09T19:27:52.414Z,35.92
2023-05-09T19:30:24.058Z,36.63
2023-05-09T19:32:54.590Z,36.60
2023-05-09T19:35:24.305Z,36.49
2023-05-09T19:37:53.704Z,37.06
2023-05-09T19:40:28.481Z,36.92
2023-05-09T19:42:57.944Z,37.08
2023-05-09T19:45:29.548Z,37.11
2023-05-09T19:47:59.099Z,37.34
2023-05-09T19:50:28.541Z,37.78
2023-05-09T19:52:57.998Z,37.40
2023-05-09T19:55:27.591Z,37.43
2023-05-09T19:57:57.136Z,37.81
2023-05-09T20:00:28.437Z,37.81
2023-05-09T20:03:02.935Z,37.90
2023-05-09T20:08:25.168Z,37.43
2023-05-09T20:10:54.840Z,37.25
2023-05-09T20:13:24.214Z,37.20
2023-05-09T20:15:57.242Z,37.95
2023-05-09T20:18:26.700Z,38.08
2023-05-09T20:20:56.523Z,38.05
2023-05-09T20:23:26.000Z,38.08
2023-05-09T20:25:55.452Z,38.22
2023-05-09T20:28:24.917Z,38.31
2023-05-09T20:33:32.212Z,38.02
2023-05-09T20:36:09.265Z,38.18
2023-05-09T20:38:38.723Z,38.00
2023-05-09T20:41:08.043Z,38.41
2023-05-09T20:43:38.076Z,38.18
2023-05-09T20:46:09.274Z,38.84
2023-05-09T20:48:38.793Z,39.04
2023-05-09T20:51:08.170Z,38.98
2023-05-09T20:53:49.470Z,39.33
2023-05-09T20:56:19.273Z,39.28
2023-05-09T20:58:48.525Z,39.22
2023-05-09T21:01:20.403Z,39.53
2023-05-09T21:03:55.780Z,39.00
2023-05-09T21:06:25.257Z,39.44
2023-05-09T21:08:54.598Z,39.57
2023-05-09T21:11:29.177Z,39.30
2023-05-09T21:13:58.546Z,39.29
2023-05-09T21:19:10.585Z,39.92
2023-05-09T21:21:40.299Z,39.86
2023-05-09T21:24:10.679Z,40.45
2023-05-09T21:26:45.039Z,40.47
2023-05-09T21:29:14.384Z,40.50
2023-05-09T21:31:45.801Z,40.98
2023-05-09T21:34:26.477Z,40.85
2023-05-09T21:36:55.864Z,40.79
2023-05-09T21:39:25.391Z,40.73
2023-05-09T21:41:59.950Z,40.28
2023-05-09T21:44:29.954Z,40.43
2023-05-09T21:47:01.460Z,40.79
2023-05-09T21:49:31.073Z,40.43
2023-05-09T21:52:00.740Z,40.25
2023-05-09T21:54:30.181Z,40.27
2023-05-09T21:56:59.320Z,39.93
2023-05-09T21:59:28.953Z,39.65
2023-05-09T22:02:03.257Z,39.97
2023-05-09T22:04:34.609Z,39.68
2023-05-09T22:07:09.080Z,39.94
2023-05-09T22:09:38.639Z,39.71
2023-05-09T22:12:08.603Z,39.50
2023-05-09T22:14:45.371Z,39.80
2023-05-09T22:17:33.156Z,39.77
2023-05-09T22:20:04.854Z,39.81
2023-05-09T22:22:35.105Z,39.57
2023-05-09T22:25:05.415Z,39.44
2023-05-09T22:27:34.890Z,39.84
2023-05-09T22:30:04.199Z,41.49
2023-05-09T22:32:35.784Z,40.47
2023-05-09T22:35:08.013Z,40.83
2023-05-09T22:37:37.540Z,39.92
2023-05-09T22:40:09.588Z,39.50
2023-05-09T22:42:43.988Z,39.09
2023-05-09T22:45:24.592Z,39.04
2023-05-09T22:47:54.061Z,38.68
2023-05-09T22:50:25.426Z,38.44
2023-05-09T22:52:59.875Z,38.59
2023-05-09T22:55:34.175Z,38.74
2023-05-09T22:58:05.306Z,38.81
2023-05-09T23:00:34.596Z,39.18
2023-05-09T23:05:53.112Z,39.02
2023-05-09T23:08:27.663Z,38.71
2023-05-09T23:10:56.958Z,39.02
2023-05-09T23:13:31.483Z,38.81
2023-05-09T23:16:00.674Z,38.76
2023-05-09T23:18:30.769Z,38.24
2023-05-09T23:21:01.917Z,38.31
2023-05-09T23:23:31.325Z,37.91
2023-05-09T23:26:00.585Z,37.98
2023-05-09T23:28:30.080Z,37.86
2023-05-09T23:30:59.322Z,38.02
2023-05-09T23:33:29.175Z,38.34
2023-05-09T23:35:58.931Z,38.68
2023-05-09T23:38:30.318Z,38.65
2023-05-09T23:43:40.528Z,38.48
2023-05-09T23:46:09.901Z,38.75
2023-05-09T23:48:39.368Z,39.21
2023-05-09T23:51:08.793Z,39.33
2023-05-09T23:53:40.121Z,38.81
2023-05-09T23:56:15.138Z,38.97
2023-05-09T23:58:44.581Z,38.84
